createdAt,value
2023-03-29T00:02:17.691Z,74.56
2023-03-29T00:05:25.560Z,74.55
2023-03-29T00:08:29.861Z,75.96
2023-03-29T00:11:32.985Z,74.00
2023-03-29T00:14:35.700Z,73.22
2023-03-29T00:17:38.490Z,73.75
2023-03-29T00:20:41.206Z,72.62
2023-03-29T00:23:44.127Z,72.48
2023-03-29T00:26:48.940Z,75.03
2023-03-29T00:29:51.947Z,74.10
2023-03-29T00:32:54.745Z,71.91
2023-03-29T00:35:57.563Z,72.56
2023-03-29T00:39:00.771Z,72.44
2023-03-29T00:42:03.893Z,74.28
2023-03-29T00:45:12.409Z,72.40
2023-03-29T00:48:22.295Z,71.33
2023-03-29T00:51:28.129Z,64.70
2023-03-29T00:54:33.247Z,65.19
2023-03-29T00:57:37.643Z,68.01
2023-03-29T01:00:58.134Z,68.50
2023-03-29T01:04:18.002Z,69.14
2023-03-29T01:07:28.616Z,70.71
2023-03-29T01:10:34.618Z,70.81
2023-03-29T01:14:02.776Z,73.55
2023-03-29T01:17:06.626Z,71.94
2023-03-29T01:20:28.687Z,74.40
2023-03-29T01:23:43.606Z,75.21
2023-03-29T01:27:12.497Z,75.90
2023-03-29T01:30:21.337Z,75.59
2023-03-29T01:33:33.854Z,75.73
2023-03-29T01:36:51.388Z,76.17
2023-03-29T01:39:54.365Z,74.70
2023-03-29T01:43:18.952Z,77.90
2023-03-29T01:46:46.538Z,77.35
2023-03-29T01:50:02.852Z,78.09
2023-03-29T01:53:08.861Z,77.93
2023-03-29T01:56:19.595Z,80.74
2023-03-29T01:59:31.600Z,77.04
2023-03-29T02:02:34.913Z,77.74
2023-03-29T02:05:39.873Z,78.41
2023-03-29T02:08:44.942Z,78.66
2023-03-29T02:11:51.860Z,79.59
2023-03-29T02:14:54.462Z,78.70
2023-03-29T02:17:57.486Z,78.86
2023-03-29T02:21:01.229Z,79.17
2023-03-29T02:24:09.219Z,80.87
2023-03-29T02:27:13.311Z,78.64
2023-03-29T02:30:21.006Z,82.94
2023-03-29T02:33:32.843Z,80.40
2023-03-29T02:36:47.629Z,82.16
2023-03-29T02:39:51.466Z,79.99
2023-03-29T02:42:56.225Z,81.19
2023-03-29T02:45:59.359Z,80.19
2023-03-29T02:49:02.292Z,81.24
2023-03-29T02:52:11.699Z,78.72
2023-03-29T02:55:17.697Z,79.82
2023-03-29T02:58:20.673Z,79.74
2023-03-29T03:01:23.826Z,81.71
2023-03-29T03:04:26.717Z,82.68
2023-03-29T03:07:29.982Z,80.85
2023-03-29T03:10:33.747Z,81.99
2023-03-29T03:13:37.307Z,84.50
2023-03-29T03:16:39.728Z,84.76
2023-03-29T03:19:43.031Z,85.41
2023-03-29T03:22:49.208Z,83.81
2023-03-29T03:25:53.615Z,81.87
2023-03-29T03:28:56.785Z,81.94
2023-03-29T03:32:18.833Z,80.57
2023-03-29T03:35:24.080Z,81.06
2023-03-29T03:38:27.470Z,83.08
2023-03-29T03:41:34.745Z,83.01
2023-03-29T03:44:39.736Z,82.74
2023-03-29T03:47:55.884Z,84.83
2023-03-29T03:51:21.924Z,84.18
2023-03-29T03:54:26.174Z,83.23
2023-03-29T03:57:56.421Z,83.94
2023-03-29T04:00:59.199Z,82.81
2023-03-29T04:04:13.098Z,84.08
2023-03-29T04:07:19.029Z,84.89
2023-03-29T04:10:31.492Z,85.07
2023-03-29T04:13:50.336Z,85.92
2023-03-29T04:17:02.159Z,85.43
2023-03-29T04:20:34.259Z,84.39
2023-03-29T04:23:37.754Z,83.47
2023-03-29T04:26:40.889Z,84.94
2023-03-29T04:29:54.855Z,82.77
2023-03-29T04:33:08.866Z,83.71
2023-03-29T04:36:14.203Z,83.51
2023-03-29T04:39:18.109Z,84.36
2023-03-29T04:42:23.523Z,85.80
2023-03-29T04:45:26.820Z,85.90
2023-03-29T04:48:43.083Z,85.99
2023-03-29T04:51:45.785Z,85.93
2023-03-29T04:54:48.686Z,85.48
2023-03-29T04:57:59.821Z,85.48
2023-03-29T05:01:21.870Z,86.32
2023-03-29T05:04:33.093Z,86.82
2023-03-29T05:07:45.367Z,84.02
2023-03-29T05:10:50.840Z,86.41
2023-03-29T05:13:55.831Z,75.52
2023-03-29T05:16:59.222Z,70.39
2023-03-29T05:20:07.389Z,71.06
2023-03-29T05:23:10.566Z,70.84
2023-03-29T05:26:31.858Z,72.76
2023-03-29T05:29:34.401Z,72.31
2023-03-29T05:33:02.554Z,70.67
2023-03-29T05:36:09.109Z,70.10
2023-03-29T05:39:15.796Z,65.07
2023-03-29T05:42:22.429Z,64.39
2023-03-29T05:45:30.055Z,63.83
2023-03-29T05:48:33.122Z,62.79
2023-03-29T05:51:36.490Z,60.98
2023-03-29T05:54:39.718Z,60.38
2023-03-29T05:57:42.718Z,60.82
2023-03-29T06:00:45.890Z,60.67
2023-03-29T06:04:03.954Z,61.02
2023-03-29T06:07:24.468Z,61.08
2023-03-29T06:11:06.897Z,60.82
2023-03-29T06:14:28.985Z,62.46
2023-03-29T06:17:46.024Z,62.15
2023-03-29T06:20:53.011Z,60.73
2023-03-29T06:23:57.337Z,59.66
2023-03-29T06:27:02.571Z,56.86
2023-03-29T06:30:07.338Z,57.02
2023-03-29T06:33:12.242Z,55.47
2023-03-29T06:36:28.980Z,54.57
2023-03-29T06:39:31.682Z,51.85
2023-03-29T06:42:57.967Z,50.52
2023-03-29T06:46:19.614Z,53.48
2023-03-29T06:49:35.504Z,55.49
2023-03-29T06:53:01.715Z,51.92
2023-03-29T06:56:09.639Z,56.49
2023-03-29T06:59:20.951Z,54.06
2023-03-29T07:02:37.773Z,54.08
2023-03-29T07:05:51.852Z,55.13
2023-03-29T07:08:59.842Z,53.32
2023-03-29T07:12:23.188Z,51.91
2023-03-29T07:15:27.778Z,52.97
2023-03-29T07:18:54.433Z,46.08
2023-03-29T07:22:22.906Z,45.08
2023-03-29T07:25:30.887Z,45.61
2023-03-29T07:28:37.624Z,40.39
2023-03-29T07:31:41.699Z,42.10
2023-03-29T07:35:23.479Z,44.22
2023-03-29T07:38:26.213Z,39.19
2023-03-29T07:41:37.978Z,40.69
2023-03-29T07:44:48.571Z,39.00
2023-03-29T07:47:55.678Z,40.93
2023-03-29T07:50:58.434Z,36.50
2023-03-29T07:54:09.256Z,36.99
2023-03-29T07:57:30.970Z,36.13
2023-03-29T08:00:35.107Z,40.75
2023-03-29T08:03:57.584Z,36.87
2023-03-29T08:07:17.683Z,36.68
2023-03-29T08:10:40.025Z,34.22
2023-03-29T08:13:51.718Z,36.87
2023-03-29T08:17:26.556Z,34.53
2023-03-29T08:20:29.683Z,33.06
2023-03-29T08:23:37.385Z,39.05
2023-03-29T08:26:49.479Z,37.09
2023-03-29T08:29:54.959Z,32.58
2023-03-29T08:32:58.148Z,33.83
2023-03-29T08:36:01.275Z,32.95
2023-03-29T08:39:07.394Z,33.41
2023-03-29T08:42:31.706Z,34.38
2023-03-29T08:46:00.889Z,36.48
2023-03-29T08:49:06.322Z,32.78
2023-03-29T08:52:21.398Z,33.52
2023-03-29T08:55:28.690Z,36.29
2023-03-29T08:58:58.405Z,32.43
2023-03-29T09:02:16.808Z,33.72
2023-03-29T09:05:35.265Z,34.25
2023-03-29T09:08:49.408Z,35.65
2023-03-29T09:12:19.965Z,34.80
2023-03-29T09:15:49.366Z,35.75
2023-03-29T09:19:32.228Z,34.79
2023-03-29T09:22:46.742Z,34.22
2023-03-29T09:25:53.573Z,37.46
2023-03-29T09:29:22.407Z,39.15
2023-03-29T09:32:33.012Z,31.78
2023-03-29T09:35:43.987Z,35.95
2023-03-29T09:38:51.081Z,35.19
2023-03-29T09:42:04.474Z,33.10
2023-03-29T09:45:08.700Z,34.06
2023-03-29T09:48:20.033Z,34.49
2023-03-29T09:51:33.123Z,33.58
2023-03-29T09:54:35.735Z,34.80
2023-03-29T09:58:13.510Z,31.72
2023-03-29T10:01:20.349Z,29.53
2023-03-29T10:04:26.224Z,28.96
2023-03-29T10:07:44.648Z,29.43
2023-03-29T10:10:48.850Z,27.94
2023-03-29T10:13:59.383Z,25.75
2023-03-29T10:17:06.062Z,27.35
2023-03-29T10:20:15.242Z,23.63
2023-03-29T10:23:19.163Z,28.85
2023-03-29T10:26:29.609Z,26.46
2023-03-29T10:29:38.838Z,28.08
2023-03-29T10:32:41.491Z,27.29
2023-03-29T10:35:44.783Z,25.30
2023-03-29T10:38:48.187Z,27.45
2023-03-29T10:41:52.922Z,33.36
2023-03-29T10:44:58.016Z,30.20
2023-03-29T10:48:01.581Z,30.22
2023-03-29T10:51:06.086Z,27.35
2023-03-29T10:54:15.062Z,28.22
2023-03-29T10:57:37.673Z,25.80
2023-03-29T11:00:52.327Z,27.39
2023-03-29T11:04:23.024Z,24.96
2023-03-29T11:07:34.696Z,25.71
2023-03-29T11:10:50.758Z,24.85
2023-03-29T11:14:07.503Z,23.75
2023-03-29T11:17:42.711Z,23.14
2023-03-29T11:20:54.009Z,24.88
2023-03-29T11:24:14.221Z,21.98
2023-03-29T11:27:35.720Z,24.13
2023-03-29T11:31:05.709Z,27.36
2023-03-29T11:34:49.896Z,28.35
2023-03-29T11:38:07.297Z,25.90
2023-03-29T11:41:12.477Z,25.49
2023-03-29T11:44:24.550Z,27.12
2023-03-29T11:47:37.353Z,26.86
2023-03-29T11:50:50.534Z,29.87
2023-03-29T11:54:01.017Z,26.72
2023-03-29T11:57:18.613Z,29.98
2023-03-29T12:00:39.075Z,27.86
2023-03-29T12:03:48.255Z,27.27
2023-03-29T12:07:01.860Z,29.06
2023-03-29T12:10:16.718Z,27.37
2023-03-29T12:13:36.570Z,28.40
2023-03-29T12:16:48.083Z,28.70
2023-03-29T12:20:10.442Z,29.89
2023-03-29T12:23:16.844Z,27.81
2023-03-29T12:26:57.985Z,28.10
2023-03-29T12:30:27.581Z,28.70
2023-03-29T12:34:09.119Z,27.89
2023-03-29T12:37:47.290Z,25.91
2023-03-29T12:41:19.235Z,26.35
2023-03-29T12:44:43.897Z,26.00
2023-03-29T12:48:02.248Z,30.54
2023-03-29T12:51:12.343Z,29.71
2023-03-29T12:54:19.733Z,27.07
2023-03-29T12:58:00.246Z,26.78
2023-03-29T13:01:23.382Z,28.68
2023-03-29T13:04:56.778Z,27.78
2023-03-29T13:08:10.678Z,32.63
2023-03-29T13:11:29.298Z,31.65
2023-03-29T13:14:37.217Z,33.29
2023-03-29T13:17:45.989Z,30.73
2023-03-29T13:20:57.427Z,28.63
2023-03-29T13:24:02.661Z,25.96
2023-03-29T13:27:34.737Z,27.58
2023-03-29T13:30:58.974Z,25.02
2023-03-29T13:34:55.398Z,24.38
2023-03-29T13:38:16.862Z,26.80
2023-03-29T13:41:38.539Z,24.83
2023-03-29T13:44:48.900Z,27.38
2023-03-29T13:48:22.935Z,25.85
2023-03-29T13:51:37.086Z,25.22
2023-03-29T13:54:47.657Z,27.33
2023-03-29T13:58:15.878Z,30.08
2023-03-29T14:01:32.371Z,29.41
2023-03-29T14:04:46.838Z,30.51
2023-03-29T14:07:53.362Z,28.91
2023-03-29T14:10:56.647Z,27.78
2023-03-29T14:14:03.198Z,29.76
2023-03-29T14:17:05.945Z,27.07
2023-03-29T14:20:09.783Z,26.99
2023-03-29T14:23:16.292Z,27.91
2023-03-29T14:26:22.279Z,27.20
2023-03-29T14:29:30.896Z,29.26
2023-03-29T14:32:33.731Z,30.11
2023-03-29T14:35:36.544Z,27.16
2023-03-29T14:38:40.067Z,27.57
2023-03-29T14:41:49.845Z,29.02
2023-03-29T14:45:07.345Z,28.47
2023-03-29T14:48:13.427Z,26.52
2023-03-29T14:51:16.662Z,28.66
2023-03-29T14:54:22.159Z,27.84
2023-03-29T14:57:28.603Z,27.93
2023-03-29T15:00:44.389Z,27.45
2023-03-29T15:04:16.254Z,29.27
2023-03-29T15:07:23.345Z,28.92
2023-03-29T15:10:26.712Z,27.21
2023-03-29T15:13:30.577Z,27.44
2023-03-29T15:16:33.961Z,26.50
2023-03-29T15:19:36.892Z,28.41
2023-03-29T15:22:52.052Z,27.15
2023-03-29T15:25:58.398Z,30.90
2023-03-29T15:29:24.128Z,32.64
2023-03-29T15:32:34.325Z,30.59
2023-03-29T15:35:38.155Z,32.74
2023-03-29T15:38:44.941Z,32.14
2023-03-29T15:41:50.978Z,33.77
2023-03-29T15:44:56.268Z,32.98
2023-03-29T15:48:02.065Z,32.70
2023-03-29T15:51:06.730Z,34.77
2023-03-29T15:54:09.930Z,34.56
2023-03-29T15:57:14.903Z,34.32
2023-03-29T16:00:21.223Z,35.73
2023-03-29T16:03:24.567Z,36.05
2023-03-29T16:06:27.616Z,36.04
2023-03-29T16:09:30.719Z,37.34
2023-03-29T16:12:35.807Z,36.34
2023-03-29T16:15:38.451Z,36.14
2023-03-29T16:18:41.589Z,37.47
2023-03-29T16:21:44.992Z,36.75
2023-03-29T16:24:47.522Z,37.32
2023-03-29T16:27:50.922Z,38.04
2023-03-29T16:30:53.638Z,36.60
2023-03-29T16:33:56.590Z,35.86
2023-03-29T16:36:59.485Z,36.64
2023-03-29T16:40:01.967Z,38.23
2023-03-29T16:43:14.879Z,39.05
2023-03-29T16:46:17.537Z,39.34
2023-03-29T16:49:20.054Z,40.56
2023-03-29T16:52:23.246Z,41.73
2023-03-29T16:55:26.003Z,42.57
2023-03-29T16:58:28.553Z,42.29
2023-03-29T17:01:32.505Z,42.06
2023-03-29T17:04:35.105Z,42.46
2023-03-29T17:07:38.326Z,43.39
2023-03-29T17:10:41.475Z,43.98
2023-03-29T17:13:44.659Z,44.86
2023-03-29T17:16:47.211Z,45.01
2023-03-29T17:19:50.069Z,45.29
2023-03-29T17:22:55.350Z,45.69
2023-03-29T17:25:57.948Z,46.10
2023-03-29T17:29:00.670Z,45.80
2023-03-29T17:32:03.650Z,46.43
2023-03-29T17:35:07.049Z,45.68
2023-03-29T17:38:09.802Z,46.11
2023-03-29T17:41:12.348Z,46.37
2023-03-29T17:44:15.585Z,46.51
2023-03-29T17:47:18.170Z,48.84
2023-03-29T17:50:21.904Z,48.28
2023-03-29T17:53:24.852Z,47.66
2023-03-29T17:56:27.629Z,47.89
2023-03-29T17:59:30.473Z,48.18
2023-03-29T18:02:34.009Z,48.73
2023-03-29T18:05:36.760Z,48.99
2023-03-29T18:08:39.895Z,49.76
2023-03-29T18:11:43.226Z,52.39
2023-03-29T18:14:47.806Z,51.52
2023-03-29T18:17:51.094Z,50.91
2023-03-29T18:20:53.906Z,51.61
2023-03-29T18:23:57.092Z,52.17
2023-03-29T18:26:59.917Z,52.63
2023-03-29T18:30:03.326Z,52.23
2023-03-29T18:33:06.553Z,53.40
2023-03-29T18:36:13.284Z,53.82
2023-03-29T18:39:16.828Z,52.27
2023-03-29T18:42:21.864Z,53.91
2023-03-29T18:45:24.655Z,54.41
2023-03-29T18:48:27.639Z,53.66
2023-03-29T18:51:31.278Z,52.72
2023-03-29T18:54:34.408Z,53.61
2023-03-29T18:57:37.400Z,52.92
2023-03-29T19:00:41.344Z,52.82
2023-03-29T19:03:44.261Z,52.83
2023-03-29T19:06:49.288Z,53.67
2023-03-29T19:09:52.192Z,53.90
2023-03-29T19:12:55.136Z,53.86
2023-03-29T19:15:58.027Z,54.66
2023-03-29T19:19:01.559Z,56.64
2023-03-29T19:22:04.851Z,58.46
2023-03-29T19:25:08.038Z,58.45
2023-03-29T19:28:11.246Z,60.94
2023-03-29T19:31:13.919Z,59.22
2023-03-29T19:34:19.849Z,59.69
2023-03-29T19:37:22.653Z,60.11
2023-03-29T19:40:27.451Z,61.43
2023-03-29T19:43:31.651Z,61.21
2023-03-29T19:46:34.772Z,62.67
2023-03-29T19:49:38.292Z,64.65
2023-03-29T19:52:41.807Z,64.64
2023-03-29T19:55:45.327Z,63.08
2023-03-29T19:58:48.615Z,63.49
2023-03-29T20:01:51.351Z,63.22
2023-03-29T20:04:55.361Z,64.17
2023-03-29T20:07:58.108Z,62.83
2023-03-29T20:11:04.049Z,61.74
2023-03-29T20:14:06.878Z,61.85
2023-03-29T20:17:10.093Z,62.83
2023-03-29T20:20:13.996Z,62.52
2023-03-29T20:23:17.296Z,62.85
2023-03-29T20:26:19.936Z,63.87
2023-03-29T20:29:23.191Z,65.25
2023-03-29T20:32:25.843Z,65.15
2023-03-29T20:35:28.644Z,64.43
2023-03-29T20:38:31.442Z,64.67
2023-03-29T20:41:38.412Z,65.10
2023-03-29T20:44:41.014Z,65.61
2023-03-29T20:47:50.509Z,64.23
2023-03-29T20:50:54.248Z,65.52
2023-03-29T20:54:07.743Z,64.99
2023-03-29T20:57:14.235Z,65.53
2023-03-29T21:00:19.834Z,65.09
2023-03-29T21:03:22.653Z,66.33
2023-03-29T21:06:25.586Z,66.19
2023-03-29T21:09:27.945Z,67.31
2023-03-29T21:12:31.074Z,68.60
2023-03-29T21:15:34.598Z,69.08
2023-03-29T21:18:38.949Z,68.72
2023-03-29T21:21:42.754Z,69.28
2023-03-29T21:24:45.746Z,69.44
2023-03-29T21:27:49.149Z,70.29
2023-03-29T21:30:51.833Z,69.10
2023-03-29T21:33:56.565Z,69.23
2023-03-29T21:36:59.270Z,69.88
2023-03-29T21:40:05.747Z,70.43
2023-03-29T21:43:09.387Z,70.80
2023-03-29T21:46:11.909Z,70.02
2023-03-29T21:49:14.964Z,69.72
2023-03-29T21:52:17.917Z,70.17
2023-03-29T21:55:20.673Z,70.46
2023-03-29T21:58:23.347Z,70.59
2023-03-29T22:01:26.379Z,70.98
2023-03-29T22:04:36.526Z,71.82
2023-03-29T22:07:40.534Z,72.07
2023-03-29T22:10:43.127Z,72.43
2023-03-29T22:13:46.526Z,73.08
2023-03-29T22:16:49.082Z,73.28
2023-03-29T22:19:52.545Z,72.86
2023-03-29T22:22:55.686Z,73.23
2023-03-29T22:25:58.260Z,73.77
2023-03-29T22:29:01.751Z,74.41
2023-03-29T22:32:04.979Z,74.41
2023-03-29T22:35:08.306Z,73.87
2023-03-29T22:38:10.854Z,74.37
2023-03-29T22:41:14.377Z,74.99
2023-03-29T22:44:17.438Z,74.83
2023-03-29T22:47:19.935Z,74.83
2023-03-29T22:50:22.825Z,75.41
2023-03-29T22:53:25.768Z,75.95
2023-03-29T22:56:28.599Z,75.46
2023-03-29T22:59:31.359Z,75.07
2023-03-29T23:02:34.119Z,75.55
2023-03-29T23:05:36.686Z,74.51
2023-03-29T23:08:39.749Z,74.60
2023-03-29T23:11:42.416Z,74.85
2023-03-29T23:14:45.456Z,74.69
2023-03-29T23:17:48.643Z,75.20
2023-03-29T23:20:54.858Z,75.23
2023-03-29T23:23:57.579Z,75.52
2023-03-29T23:27:01.435Z,75.54
2023-03-29T23:30:04.270Z,75.91
2023-03-29T23:33:07.840Z,76.35
2023-03-29T23:36:16.299Z,75.50
2023-03-29T23:39:19.478Z,76.10
2023-03-29T23:42:22.621Z,76.03
2023-03-29T23:45:27.113Z,77.45
2023-03-29T23:48:29.881Z,75.16
2023-03-29T23:51:35.397Z,76.04
2023-03-29T23:54:38.056Z,75.60
2023-03-29T23:57:40.983Z,75.92
